Campiña-Situação meteorológica que não inspira cuidado.   -   Não há avisos

Nearby METAR Reports

 

LEZL - Sevilla, Spain
Distance from station: ENE 8km
Actualizado: 17/07/2019 18:30
Céu limpo
Céu limpo
 Vento de SW
Vento: SW 19 km/h
Temperatura: 29°C
Índice de Calor: 29°C
Ponto de Orvalho: 16°C
Humidade: 45%
Barómetro: 1013 hPa
Resumo: Céu limpo
Visibility: greater than 10 km
2019/07/17 16:30 LEZL 171630Z 23010KT 190V260 CAVOK 29/16 Q1013 NOSIG
LEMO - Morón, Spain
Distance from station: SE 43km
Actualizado: 17/07/2019 18:00
Céu limpo
Céu limpo
 Vento de W
Vento: W 19 km/h
Temperatura: 28°C
Índice de Calor: 28°C
Ponto de Orvalho: 15°C
Humidade: 45%
Barómetro: 1014 hPa
Resumo: Céu limpo
Visibility: greater than 10 km
2019/07/17 16:00 LEMO 171600Z 26010KT 230V300 CAVOK 28/15 Q1014 NOSIG
LEJR - Jeréz, Spain
Distance from station: S 71km
Actualizado: 17/07/2019 18:30
Céu limpo
Céu limpo
 Vento de SSW
Vento: SSW 15 km/h
Temperatura: 26°C
Ponto de Orvalho: 15°C
Humidade: 51%
Barómetro: 1014 hPa
Resumo: Céu limpo
Visibility: greater than 10 km
2019/07/17 16:30 LEJR 171630Z 20008KT 170V240 CAVOK 26/15 Q1014
 
LERT - Rota, Spain
Distance from station: SSW 89km
Actualizado: 17/07/2019 18:00
Few Clouds
Few Clouds
 Vento de S
Vento: S 11 km/h
Temperatura: 24°C
Ponto de Orvalho: 18°C
Humidade: 69%
Barómetro: 1015 hPa
Clouds: Few Clouds
Visibility: 10 km
Cloud details: Few Clouds 671 m
2019/07/17 16:00 LERT 171600Z 19006KT 150V260 9999 FEW022 24/18 Q1015 NOSIG
LEMG - Málaga, Spain
Distance from station: ESE 157km
Actualizado: 17/07/2019 18:30
Few Clouds
Few Clouds
 Vento de NE
Vento: NE 20 km/h
Temperatura: 29°C
Índice de Calor: 29°C
Ponto de Orvalho: 17°C
Humidade: 48%
Barómetro: 1012 hPa
Clouds: Few Clouds
Visibility: 10 km
Cloud details: Few Clouds 1219 m
2019/07/17 16:30 LEMG 171630Z 05011KT 9999 FEW040 29/17 Q1012 NOSIG
LEBA - Córdoba, Spain
Distance from station: ENE 115km
Actualizado: 17/07/2019 18:30
Céu limpo
Céu limpo
 Vento de W
Vento: W 17 km/h
Temperatura: 32°C
Ponto de Orvalho: 10°C
Humidade: 26%
Barómetro: 1012 hPa
Resumo: Céu limpo
Visibility: greater than 10 km
2019/07/17 16:30 LEBA 171630Z 26009KT 230V300 CAVOK 32/10 Q1012
 
LEGR - Granada, Spain
Distance from station: E 198km
Actualizado: 17/07/2019 18:30
Few Clouds
Few Clouds
 Vento de W
Vento: W 24 km/h
Temperatura: 32°C
Ponto de Orvalho: 13°C
Humidade: 31%
Barómetro: 1014 hPa
Clouds: Few Clouds
Visibility: 10 km
Cloud details: Few Clouds 1829 m
2019/07/17 16:30 LEGR 171630Z 28013KT 240V330 9999 FEW060 32/13 Q1014
LEAM - Almería, Spain
Distance from station: E 326km
Actualizado: 17/07/2019 18:30
Few Clouds
Few Clouds
 Vento de SW
Vento: SW 13 km/h
Temperatura: 26°C
Ponto de Orvalho: 21°C
Humidade: 74%
Barómetro: 1012 hPa
Clouds: Few Clouds
Visibility: 10 km
Cloud details: Few Clouds 366 m
2019/07/17 16:30 LEAM 171630Z 22007KT 190V250 9999 FEW012 26/21 Q1012
LEMD - Madrid/Barajas, Spain
Distance from station: NNE 402km
Actualizado: 17/07/2019 18:30
Céu limpo
Céu limpo
 Vento de SW
Vento: SW 13 km/h
Temperatura: 33°C
Ponto de Orvalho: 4°C
Humidade: 16%
Barómetro: 1013 hPa
Resumo: Céu limpo
Visibility: greater than 10 km
2019/07/17 16:30 LEMD 171630Z 23007KT 180V290 CAVOK 33/04 Q1013 NOSIG
 
LEVD - Valladolid, Spain
Distance from station: N 492km
Actualizado: 17/07/2019 18:30
Céu limpo
Céu limpo
 Vento de NE
Vento: NE 19 km/h
Temperatura: 30°C
Ponto de Orvalho: 12°C
Humidade: 33%
Barómetro: 1015 hPa
Resumo: Céu limpo
Visibility: greater than 10 km
2019/07/17 16:30 LEVD 171630Z 04010KT 360V100 CAVOK 30/12 Q1015
LEBL - Barcelona, Spain
Distance from station: NE 816km
Actualizado: 17/07/2019 18:30
Few Clouds
Few Clouds
 Vento de SSW
Vento: SSW 19 km/h
Temperatura: 27°C
Índice de Calor: 29°C
Ponto de Orvalho: 21°C
Humidade: 70%
Barómetro: 1013 hPa
Clouds: Few Clouds
Visibility: 10 km
Cloud details: Few Clouds 853 m
2019/07/17 16:30 LEBL 171630Z 21010KT 9999 FEW028 27/21 Q1013 NOSIG
LEVC - Valencia, Spain
Distance from station: ENE 535km
Actualizado: 17/07/2019 18:30
Few Clouds
Few Clouds
 Vento de SE
Vento: SE 20 km/h
Temperatura: 30°C
Índice de Calor: 31°C
Ponto de Orvalho: 17°C
Humidade: 46%
Barómetro: 1012 hPa
Clouds: Few Clouds
Visibility: 10 km
Cloud details: Few Clouds 914 m
2019/07/17 16:30 LEVC 171630Z 13011KT 080V170 9999 FEW030 30/17 Q1012 NOSIG